EGXTEGXU

Guest
Details From EGXT - RAF Witerring
To EGXU - RAF Linton On Ouse
Flight Number -
Tags generated
Created
Modified
Stats Distance 91 nm / 168 km
Max Altitude 0 ft / 0 m
Waypoints 2
Social Downloads 0
Likes 0
Share VATSIM

Download

Looking for another format? Having issues loading an existing format? Contact us
Advertisement - Login to hide

Notes

Basic altitude profile: - Ascent Rate: 700ft/min - Ascent Speed: 250kts - Cruise Altitude: 35000ft - Cruise Speed: 420kts - Descent Rate: 1500ft/min - Descent Speed: 250kts Options: - Use NATs: yes - Use PACOTS: yes - Use low airways: no - Use high airways: no

Route

EGXT EGXU

ID Type Via Altitude Latitude Longitude Leg Dist Tot Dist Heading (true) Name
O EGXT APT - 0 ft / 0 m 52.61308˚ -0.47608˚ - 0 nm - RAF Witerring
O EGXU APT - 0 ft / 0 m 54.04912˚ -1.25281˚ 90 nm 90 nm 342° / 342° RAF Linton On Ouse

Altitude Profile

Advertisement - Login to hide

EGXT

Details ICAO EGXT
Name RAF Witerring
Region United Kingdom
Timezone Europe/London (UTC+0.0)
Stats Elevation 273 ft / 83 m (AMSL)
Location 52.613084° -0.476080°
Runways 1
Magnetic Variation 0.695° W

METAR

EGXT 170150Z AUTO 27007KT 4200 BR NCD M03/M04 Q1022

Decode

TAF

Not found

Departure Runways

ID Width Length Bearing (true) Bearing (mag) Surface Threshold Offset Overrun Length
08 200 ft / 61 m 8,994 ft / 2,742 m 73.08° 73.78° Asphalt 0 ft / 0 m 0 ft / 0 m
26 200 ft / 61 m 8,994 ft / 2,742 m 253.12° 253.82° Asphalt 0 ft / 0 m 0 ft / 0 m

EGXU

Details ICAO EGXU
Name RAF Linton On Ouse
Region United Kingdom
Timezone Europe/London (UTC+0.0)
Stats Elevation 53 ft / 16 m (AMSL)
Location 54.049117° -1.252806°
Runways 2
Magnetic Variation 1.167° W

METAR

EGXU 170150Z AUTO 31002KT 9999 // BKN210/// M03/M03 Q1022

Decode

TAF

Not found

Destination Runways

ID Width Length Bearing (true) Bearing (mag) Surface Threshold Offset Overrun Length
03 151 ft / 46 m 6,002 ft / 1,829 m 31.45° 32.62° Asphalt 505 ft / 154 m 0 ft / 0 m
10 151 ft / 46 m 4,378 ft / 1,334 m 96.13° 97.30° Asphalt 0 ft / 0 m 92 ft / 28 m
21 151 ft / 46 m 6,002 ft / 1,829 m 211.47° 212.64° Asphalt 0 ft / 0 m 112 ft / 34 m
28 151 ft / 46 m 4,378 ft / 1,334 m 276.15° 277.32° Asphalt 0 ft / 0 m 180 ft / 55 m

Approach Navaids

Runway Type Ident Frequency Range Bearing (true) Bearing (mag) Slope Elevation
03 Localiser LOB 110.70 MHz 18 nm / 33 km 31.52° 32.68° - 53 ft / 16 m (AMSL)
03 Glidescope LOB 110.70 MHz 10 nm / 19 km 31.46° 32.63° 3.00° 53 ft / 16 m (AMSL)
21 Localiser LOA 110.70 MHz 18 nm / 33 km 211.40° 212.56° - 53 ft / 16 m (AMSL)
21 Glidescope LOA 110.70 MHz 10 nm / 19 km 211.46° 212.63° 3.00° 53 ft / 16 m (AMSL)